Time;durP1;ratioP1;P1;durP2;ratioP2;P2;SDS_P1;SDS_P2;PMS_P1;PMS_P2;Temp;Humidity;BMP_temperature;BMP_pressure;BME280_temperature;BME280_humidity;BME280_pressure;Samples;Min_cycle;Max_cycle;Signal;HPM_P1;HPM_P2
2021/09/20 00:01:36;;;;;;;4.40;4.00;;;16.00;99.90;;;;;;5052939;28;20206;-62
2021/09/20 00:04:04;;;;;;;4.73;4.13;;;16.00;99.90;;;;;;5052716;28;20622;-61
2021/09/20 00:06:31;;;;;;;5.07;4.00;;;16.00;99.90;;;;;;5052487;28;20205;-61
2021/09/20 00:08:58;;;;;;;4.67;4.17;;;16.10;99.90;;;;;;5052684;28;20237;-62
2021/09/20 00:11:25;;;;;;;5.50;4.10;;;16.00;99.90;;;;;;5053346;28;20205;-62
2021/09/20 00:13:51;;;;;;;6.43;4.03;;;16.00;99.90;;;;;;5052763;28;20213;-61
2021/09/20 00:16:18;;;;;;;4.50;4.10;;;16.00;99.90;;;;;;5052850;28;20214;-62
2021/09/20 00:18:45;;;;;;;4.20;3.80;;;16.00;99.90;;;;;;5052517;28;20759;-62
2021/09/20 00:21:13;;;;;;;4.50;4.10;;;16.10;99.90;;;;;;5052854;28;20209;-61
2021/09/20 00:23:40;;;;;;;4.70;4.30;;;16.10;99.90;;;;;;5052689;28;20592;-62
2021/09/20 00:26:07;;;;;;;5.37;4.57;;;16.00;99.90;;;;;;5052584;28;20205;-62
2021/09/20 00:28:34;;;;;;;6.40;3.80;;;16.00;99.90;;;;;;5052123;28;20236;-61
2021/09/20 00:31:01;;;;;;;4.60;4.20;;;15.90;99.90;;;;;;5052474;28;20210;-61
2021/09/20 00:33:28;;;;;;;6.47;4.40;;;16.00;99.90;;;;;;5052400;28;20205;-61
2021/09/20 00:35:55;;;;;;;5.90;3.93;;;16.00;99.90;;;;;;5052421;28;20212;-61
2021/09/20 00:38:23;;;;;;;4.63;4.13;;;15.90;99.90;;;;;;5052211;28;20221;-62
2021/09/20 00:40:50;;;;;;;7.50;3.90;;;16.00;99.90;;;;;;5052261;28;20621;-62
2021/09/20 00:43:16;;;;;;;5.80;4.13;;;15.90;99.90;;;;;;5052151;28;20201;-61
2021/09/20 00:45:43;;;;;;;5.33;3.90;;;15.80;99.90;;;;;;5051835;28;20743;-62
2021/09/20 00:48:10;;;;;;;5.43;4.00;;;15.80;99.90;;;;;;5052002;28;20226;-61
2021/09/20 00:50:37;;;;;;;5.03;4.53;;;15.80;99.90;;;;;;5052158;28;20206;-61
2021/09/20 00:53:04;;;;;;;4.33;3.83;;;15.80;99.90;;;;;;5052106;28;20213;-62
2021/09/20 00:55:32;;;;;;;5.03;4.50;;;15.70;99.90;;;;;;5051889;28;20205;-61
2021/09/20 00:57:59;;;;;;;5.00;4.47;;;15.70;99.90;;;;;;5051679;28;20229;-61
2021/09/20 01:00:26;;;;;;;5.13;4.63;;;15.60;99.90;;;;;;5051995;28;20222;-62
2021/09/20 01:02:53;;;;;;;5.37;4.50;;;15.60;99.90;;;;;;5051949;28;20264;-61
2021/09/20 01:05:20;;;;;;;7.27;4.10;;;15.60;99.90;;;;;;5051984;28;20216;-61
2021/09/20 01:07:47;;;;;;;6.10;4.63;;;15.50;99.90;;;;;;5051392;28;20233;-61
2021/09/20 01:10:13;;;;;;;5.10;4.13;;;15.40;99.90;;;;;;5051728;28;20213;-61
2021/09/20 01:12:41;;;;;;;5.00;4.50;;;15.50;99.90;;;;;;5051484;28;20674;-61
2021/09/20 01:15:09;;;;;;;7.23;4.67;;;15.50;99.90;;;;;;5051591;28;20205;-61
2021/09/20 01:17:36;;;;;;;5.17;4.67;;;15.50;99.90;;;;;;5051289;28;20205;-60
2021/09/20 01:20:04;;;;;;;4.33;3.93;;;15.50;99.90;;;;;;5051726;28;20638;-61
2021/09/20 01:22:31;;;;;;;6.13;4.63;;;15.40;99.90;;;;;;5052201;28;20488;-61
2021/09/20 01:24:59;;;;;;;6.30;4.30;;;15.40;99.90;;;;;;5051168;28;20263;-61
2021/09/20 01:27:26;;;;;;;5.47;4.83;;;15.40;99.90;;;;;;5051481;28;20316;-61
2021/09/20 01:29:52;;;;;;;5.37;4.70;;;15.40;99.90;;;;;;5051558;28;20384;-61
2021/09/20 01:32:19;;;;;;;5.07;4.57;;;15.40;99.90;;;;;;5051204;28;20734;-61
2021/09/20 01:34:46;;;;;;;5.00;4.50;;;15.50;99.90;;;;;;5051065;28;20733;-61
2021/09/20 01:37:13;;;;;;;7.07;4.83;;;15.50;99.90;;;;;;5051363;28;20742;-60
2021/09/20 01:39:40;;;;;;;5.20;4.67;;;15.50;99.90;;;;;;5051049;28;20604;-61
2021/09/20 01:42:09;;;;;;;4.80;4.40;;;15.40;99.90;;;;;;5051537;28;20263;-61
2021/09/20 01:44:36;;;;;;;4.50;4.07;;;15.30;99.90;;;;;;5051485;28;20229;-61
2021/09/20 01:47:04;;;;;;;5.13;4.63;;;15.40;99.90;;;;;;5051513;28;20210;-62
2021/09/20 01:49:31;;;;;;;5.17;4.67;;;15.30;99.90;;;;;;5050947;28;20225;-61
2021/09/20 01:51:58;;;;;;;5.60;4.53;;;15.40;99.90;;;;;;5050902;28;20206;-61
2021/09/20 01:54:25;;;;;;;5.07;4.57;;;15.40;99.90;;;;;;5050850;28;20550;-61
2021/09/20 01:56:52;;;;;;;6.30;4.80;;;15.30;99.90;;;;;;5051326;28;20206;-61
2021/09/20 01:59:20;;;;;;;7.33;4.63;;;15.30;99.90;;;;;;5051159;28;20221;-61
2021/09/20 02:01:47;;;;;;;5.23;4.60;;;15.30;99.90;;;;;;5051036;28;20213;-61
2021/09/20 02:04:13;;;;;;;5.83;4.93;;;15.40;99.90;;;;;;5050585;28;20752;-61
2021/09/20 02:06:40;;;;;;;5.47;4.40;;;15.50;99.90;;;;;;5050633;28;20560;-62
2021/09/20 02:09:10;;;;;;;5.03;4.43;;;15.50;99.90;;;;;;5050473;28;20237;-62
2021/09/20 02:11:38;;;;;;;4.80;4.03;;;15.50;99.90;;;;;;5050966;28;20263;-62
2021/09/20 02:14:05;;;;;;;5.70;4.40;;;15.50;99.90;;;;;;5050875;28;20633;-61
2021/09/20 02:16:33;;;;;;;5.70;4.97;;;15.50;99.90;;;;;;5050911;28;20217;-62
2021/09/20 02:19:00;;;;;;;5.57;4.80;;;15.50;99.90;;;;;;5050522;28;20225;-61
2021/09/20 02:21:26;;;;;;;5.77;4.70;;;15.60;99.90;;;;;;5050588;28;20251;-61
2021/09/20 02:23:53;;;;;;;5.07;4.57;;;15.70;99.90;;;;;;5050781;28;20255;-61
2021/09/20 02:26:20;;;;;;;5.13;4.73;;;15.70;99.90;;;;;;5050734;28;20205;-61
2021/09/20 02:28:47;;;;;;;5.90;5.10;;;15.70;99.90;;;;;;5051363;28;20666;-61
2021/09/20 02:31:14;;;;;;;5.17;4.63;;;15.70;99.90;;;;;;5054704;28;20209;-62
2021/09/20 02:33:42;;;;;;;5.53;4.90;;;15.70;99.90;;;;;;5054452;28;20209;-62
2021/09/20 02:36:09;;;;;;;5.53;4.93;;;15.70;99.90;;;;;;5055026;28;20496;-62
2021/09/20 02:38:36;;;;;;;5.13;4.53;;;15.60;99.90;;;;;;5054164;28;20704;-62
2021/09/20 02:41:04;;;;;;;5.77;5.23;;;15.60;99.90;;;;;;5054701;28;20216;-62
2021/09/20 02:43:31;;;;;;;5.57;4.50;;;15.60;99.90;;;;;;5054527;28;20670;-62
2021/09/20 02:45:58;;;;;;;5.33;4.83;;;15.60;99.90;;;;;;5054340;28;20201;-61
2021/09/20 02:48:25;;;;;;;6.10;5.30;;;15.50;99.90;;;;;;5054062;28;20233;-61
2021/09/20 02:50:53;;;;;;;5.90;4.90;;;15.30;99.90;;;;;;5054557;28;20638;-62
2021/09/20 02:53:20;;;;;;;5.87;4.77;;;15.30;99.90;;;;;;5054479;28;20629;-62
2021/09/20 02:55:46;;;;;;;17.60;13.83;;;15.40;99.90;;;;;;5054048;28;20205;-62
2021/09/20 02:58:13;;;;;;;6.10;5.37;;;15.50;99.90;;;;;;5054013;28;20270;-61
2021/09/20 03:00:40;;;;;;;5.57;4.73;;;15.60;99.90;;;;;;5053979;28;20624;-62
2021/09/20 03:03:07;;;;;;;6.10;5.50;;;15.60;99.90;;;;;;5054159;28;20218;-61
2021/09/20 03:05:34;;;;;;;6.93;5.90;;;15.60;99.90;;;;;;5054122;28;20210;-60
2021/09/20 03:08:03;;;;;;;8.37;5.17;;;15.60;99.90;;;;;;5054087;28;20234;-61
2021/09/20 03:10:30;;;;;;;6.67;5.30;;;15.60;99.90;;;;;;5053907;28;20558;-61
2021/09/20 03:12:57;;;;;;;7.27;4.93;;;15.50;99.90;;;;;;5053825;28;20221;-62
2021/09/20 03:15:24;;;;;;;6.33;4.70;;;15.30;99.90;;;;;;5053653;28;20710;-62
2021/09/20 03:17:51;;;;;;;5.97;5.07;;;15.30;99.90;;;;;;5053597;28;20732;-63
2021/09/20 03:20:18;;;;;;;5.87;5.27;;;15.40;99.90;;;;;;5054079;28;20206;-61
2021/09/20 03:22:45;;;;;;;6.63;5.17;;;15.40;99.90;;;;;;5053807;28;20696;-60
2021/09/20 03:25:14;;;;;;;6.40;5.20;;;15.40;99.90;;;;;;5053658;28;20206;-61
2021/09/20 03:27:41;;;;;;;5.90;4.93;;;15.40;99.90;;;;;;5053511;28;20247;-61
2021/09/20 03:30:10;;;;;;;5.30;4.80;;;15.40;99.90;;;;;;5053496;28;20201;-61
2021/09/20 03:32:37;;;;;;;7.37;5.07;;;15.50;99.90;;;;;;5053669;28;20240;-62
2021/09/20 03:35:05;;;;;;;5.30;4.80;;;15.50;99.90;;;;;;5053419;28;20684;-62
2021/09/20 03:37:32;;;;;;;6.43;5.30;;;15.40;99.90;;;;;;5053653;28;20202;-61
2021/09/20 03:39:58;;;;;;;6.23;5.23;;;15.30;99.90;;;;;;5053073;28;20210;-61
2021/09/20 03:42:27;;;;;;;5.90;5.10;;;15.30;99.90;;;;;;5053171;28;20208;-62
2021/09/20 03:44:54;;;;;;;7.53;5.20;;;15.40;99.90;;;;;;5053489;28;20232;-62
2021/09/20 03:47:20;;;;;;;6.47;5.60;;;15.40;99.90;;;;;;5053065;28;20606;-62
2021/09/20 03:49:47;;;;;;;8.60;5.70;;;15.40;99.90;;;;;;5053112;28;20658;-62
2021/09/20 03:52:14;;;;;;;6.50;5.50;;;15.40;99.90;;;;;;5053192;28;20209;-62
2021/09/20 03:54:40;;;;;;;6.50;5.57;;;15.40;99.90;;;;;;5053224;28;20244;-62
2021/09/20 03:57:07;;;;;;;6.10;5.53;;;15.50;99.90;;;;;;5053420;28;20263;-62
2021/09/20 03:59:35;;;;;;;14.63;10.83;;;15.50;99.90;;;;;;5053161;28;20226;-62
2021/09/20 04:02:02;;;;;;;9.13;8.07;;;15.50;99.90;;;;;;5052886;28;20263;-62
2021/09/20 04:04:29;;;;;;;7.43;6.60;;;15.50;99.90;;;;;;5052757;28;20208;-62
2021/09/20 04:06:55;;;;;;;10.60;7.90;;;15.60;99.90;;;;;;5052897;28;20208;-62
2021/09/20 04:09:23;;;;;;;7.83;6.33;;;15.60;99.90;;;;;;5052903;28;20694;-61
2021/09/20 04:11:50;;;;;;;13.57;10.57;;;15.60;99.90;;;;;;5052848;28;20213;-61
2021/09/20 04:14:17;;;;;;;8.23;5.97;;;15.70;99.90;;;;;;5052719;28;20201;-60
2021/09/20 04:16:45;;;;;;;7.53;6.70;;;15.60;99.90;;;;;;5052582;28;20202;-62
2021/09/20 04:19:11;;;;;;;5.87;5.27;;;15.60;99.90;;;;;;5052539;28;20230;-63
2021/09/20 04:21:38;;;;;;;6.80;5.03;;;15.70;99.90;;;;;;5052624;28;20205;-62
2021/09/20 04:24:05;;;;;;;7.93;5.27;;;15.70;99.90;;;;;;5052927;28;20206;-62
2021/09/20 04:26:31;;;;;;;11.37;9.23;;;15.60;99.90;;;;;;5052558;28;20579;-62
2021/09/20 04:28:58;;;;;;;8.53;7.17;;;15.60;99.90;;;;;;5052636;28;20229;-63
2021/09/20 04:31:25;;;;;;;6.07;5.30;;;15.70;99.90;;;;;;5052451;28;20695;-62
2021/09/20 04:33:53;;;;;;;12.97;9.53;;;15.70;99.90;;;;;;5052581;28;20212;-62
2021/09/20 04:36:20;;;;;;;20.67;14.63;;;15.80;99.90;;;;;;5052448;28;20263;-62
2021/09/20 04:38:46;;;;;;;6.60;5.90;;;15.80;99.90;;;;;;5052232;28;20599;-62
2021/09/20 04:41:13;;;;;;;19.73;14.80;;;15.80;99.90;;;;;;5052548;28;20201;-61
2021/09/20 04:43:40;;;;;;;10.53;6.90;;;15.80;99.90;;;;;;5051917;28;20687;-62
2021/09/20 04:46:06;;;;;;;8.43;5.70;;;15.80;99.90;;;;;;5052095;28;20583;-63
2021/09/20 04:48:33;;;;;;;6.70;5.63;;;15.80;99.90;;;;;;5051703;28;20237;-63
2021/09/20 04:51:01;;;;;;;15.70;11.93;;;15.80;99.90;;;;;;5051824;28;20580;-63
2021/09/20 04:53:28;;;;;;;6.67;5.50;;;15.80;99.90;;;;;;5051718;28;20218;-62
2021/09/20 04:55:55;;;;;;;8.17;5.83;;;15.80;99.90;;;;;;5051718;28;20201;-64
2021/09/20 04:58:21;;;;;;;5.83;5.20;;;15.80;99.90;;;;;;5052046;28;20228;-63
2021/09/20 05:00:48;;;;;;;5.77;5.03;;;15.70;99.90;;;;;;5051481;28;20209;-62
2021/09/20 05:03:15;;;;;;;6.03;5.33;;;15.70;99.90;;;;;;5051648;28;20205;-63
2021/09/20 05:05:41;;;;;;;5.73;4.67;;;15.70;99.90;;;;;;5051443;28;20205;-63
2021/09/20 05:08:12;;;;;;;5.80;5.20;;;15.60;99.90;;;;;;5051171;28;20240;-62
2021/09/20 05:10:39;;;;;;;7.20;5.20;;;15.40;99.90;;;;;;5051567;28;20206;-62
2021/09/20 05:13:05;;;;;;;6.07;5.33;;;15.20;99.90;;;;;;5051443;28;20205;-63
2021/09/20 05:15:32;;;;;;;6.07;5.47;;;15.00;99.90;;;;;;5051051;28;20673;-63
2021/09/20 05:17:59;;;;;;;7.13;5.73;;;14.90;99.90;;;;;;5050982;28;20651;-63
2021/09/20 05:20:25;;;;;;;6.20;5.60;;;14.90;99.90;;;;;;5051225;28;20279;-61
2021/09/20 05:22:52;;;;;;;6.13;5.53;;;14.80;99.90;;;;;;5051310;28;20206;-64
2021/09/20 05:25:22;;;;;;;9.67;5.40;;;14.80;99.90;;;;;;5051221;28;20614;-63
2021/09/20 05:27:49;;;;;;;6.70;5.57;;;14.70;99.90;;;;;;5051124;28;20236;-61
2021/09/20 05:30:16;;;;;;;6.97;5.97;;;14.60;99.90;;;;;;5051038;28;20232;-62
2021/09/20 05:32:43;;;;;;;6.97;5.37;;;14.60;99.90;;;;;;5051107;28;20209;-62
2021/09/20 05:35:12;;;;;;;6.10;5.50;;;14.50;99.90;;;;;;5051178;28;20217;-62
2021/09/20 05:37:39;;;;;;;6.97;5.80;;;14.60;99.90;;;;;;5050894;28;20232;-62
2021/09/20 05:40:07;;;;;;;10.13;6.87;;;14.70;99.90;;;;;;5051111;28;20247;-62
2021/09/20 05:42:35;;;;;;;7.50;6.17;;;14.80;99.90;;;;;;5051216;28;20205;-62
2021/09/20 05:45:02;;;;;;;7.97;5.70;;;14.90;99.90;;;;;;5050814;28;20622;-62
2021/09/20 05:47:29;;;;;;;7.23;5.60;;;15.00;99.90;;;;;;5050595;28;20209;-61
2021/09/20 05:49:55;;;;;;;8.47;5.97;;;15.00;99.90;;;;;;5050985;28;20225;-62
2021/09/20 05:52:23;;;;;;;9.30;5.67;;;15.00;99.90;;;;;;5050894;28;20577;-62
2021/09/20 05:54:50;;;;;;;10.63;6.93;;;15.10;99.90;;;;;;5051280;28;20263;-62
2021/09/20 05:57:16;;;;;;;7.37;5.93;;;15.20;99.90;;;;;;5051185;28;20209;-62
2021/09/20 05:59:45;;;;;;;8.57;6.00;;;15.40;99.90;;;;;;5051467;28;20226;-62
2021/09/20 06:02:11;;;;;;;7.13;6.43;;;15.60;99.90;;;;;;5050849;28;20670;-62
2021/09/20 06:04:38;;;;;;;6.30;5.70;;;15.60;99.90;;;;;;5050336;28;20259;-61
2021/09/20 06:07:05;;;;;;;6.63;5.57;;;15.70;99.90;;;;;;5050932;28;20315;-62
2021/09/20 06:09:35;;;;;;;6.20;5.60;;;15.80;99.90;;;;;;5050604;28;20230;-62
2021/09/20 06:12:02;;;;;;;7.43;5.60;;;15.90;99.90;;;;;;5050793;28;20205;-62
2021/09/20 06:14:29;;;;;;;6.87;5.70;;;16.00;99.90;;;;;;5050510;28;20592;-62
2021/09/20 06:16:57;;;;;;;7.33;6.17;;;16.00;99.90;;;;;;5050436;28;20631;-62
2021/09/20 06:19:24;;;;;;;7.00;6.23;;;16.10;99.90;;;;;;5050407;28;20725;-62
2021/09/20 06:21:51;;;;;;;6.53;5.70;;;16.20;99.90;;;;;;5050731;28;20205;-62
2021/09/20 06:24:18;;;;;;;7.47;5.80;;;16.10;99.90;;;;;;5050396;28;20201;-62
2021/09/20 06:26:45;;;;;;;6.63;5.07;;;16.20;99.90;;;;;;5050517;28;20248;-62
2021/09/20 06:29:12;;;;;;;6.63;5.70;;;16.20;99.90;;;;;;5050071;28;20268;-62
2021/09/20 06:31:39;;;;;;;7.30;5.47;;;16.30;99.90;;;;;;5050646;28;20205;-62
2021/09/20 06:34:07;;;;;;;7.70;5.43;;;16.40;99.90;;;;;;5050540;28;20206;-62
2021/09/20 06:36:33;;;;;;;8.67;5.80;;;16.40;99.90;;;;;;5050462;28;20296;-62
2021/09/20 06:39:00;;;;;;;6.37;5.60;;;16.50;99.90;;;;;;5050327;28;20218;-62
2021/09/20 06:41:27;;;;;;;7.03;5.80;;;16.60;99.90;;;;;;5050399;28;20589;-63
2021/09/20 06:43:54;;;;;;;6.90;5.53;;;16.70;99.90;;;;;;5050078;28;20343;-62
2021/09/20 06:46:20;;;;;;;6.13;5.50;;;16.70;99.90;;;;;;5050474;28;20205;-63
2021/09/20 06:48:47;;;;;;;8.07;6.20;;;16.80;99.90;;;;;;5049818;28;20226;-62
2021/09/20 06:51:15;;;;;;;5.60;5.03;;;16.80;99.90;;;;;;5050786;28;20209;-62
2021/09/20 06:53:42;;;;;;;8.63;6.07;;;16.90;99.90;;;;;;5050184;28;20201;-62
2021/09/20 06:56:08;;;;;;;8.33;5.27;;;16.90;99.90;;;;;;5049860;28;20701;-63
2021/09/20 06:58:36;;;;;;;6.63;5.43;;;17.00;99.90;;;;;;5050037;28;20226;-63
2021/09/20 07:01:02;;;;;;;6.60;5.83;;;17.00;99.90;;;;;;5050375;28;20233;-62
2021/09/20 07:03:29;;;;;;;6.67;5.07;;;17.00;99.90;;;;;;5050282;28;20631;-63
2021/09/20 07:05:56;;;;;;;6.17;5.40;;;17.00;99.90;;;;;;5050351;28;20208;-62
2021/09/20 07:08:24;;;;;;;6.67;5.17;;;16.70;99.90;;;;;;5049870;28;20250;-63
2021/09/20 07:10:51;;;;;;;6.07;5.47;;;16.50;99.90;;;;;;5049889;28;20789;-62
2021/09/20 07:13:17;;;;;;;7.97;6.07;;;16.50;99.90;;;;;;5050288;28;20210;-62
2021/09/20 07:15:44;;;;;;;6.93;5.43;;;16.50;99.90;;;;;;5050972;28;20206;-62
2021/09/20 07:18:11;;;;;;;8.37;5.47;;;16.30;99.90;;;;;;5053362;28;20225;-62
2021/09/20 07:20:37;;;;;;;9.43;5.17;;;16.20;99.90;;;;;;5053588;28;20213;-61
2021/09/20 07:23:05;;;;;;;8.67;5.47;;;16.10;99.90;;;;;;5053662;28;20293;-62
2021/09/20 07:25:33;;;;;;;7.03;5.57;;;16.20;99.90;;;;;;5053494;28;20202;-62
2021/09/20 07:28:00;;;;;;;9.20;5.63;;;16.30;99.90;;;;;;5053773;28;20316;-62
2021/09/20 07:30:26;;;;;;;6.07;5.53;;;16.40;99.90;;;;;;5053786;28;20226;-62
2021/09/20 07:32:53;;;;;;;7.00;5.30;;;16.40;99.90;;;;;;5053863;28;20235;-63
2021/09/20 07:35:21;;;;;;;6.63;5.03;;;16.50;99.90;;;;;;5053541;28;20213;-62
2021/09/20 07:37:50;;;;;;;6.40;5.77;;;16.60;99.90;;;;;;5053516;28;20232;-62
2021/09/20 07:40:17;;;;;;;6.27;5.53;;;16.60;99.90;;;;;;5053483;28;20197;-63
2021/09/20 07:42:46;;;;;;;7.67;6.03;;;16.70;99.90;;;;;;5053530;28;20228;-63
2021/09/20 07:45:13;;;;;;;9.37;5.47;;;16.70;99.90;;;;;;5053237;28;20205;-63
2021/09/20 07:47:40;;;;;;;9.67;5.87;;;16.50;99.90;;;;;;5053011;28;20565;-63
2021/09/20 07:50:08;;;;;;;6.70;5.97;;;16.60;99.90;;;;;;5053137;28;20224;-62
2021/09/20 07:52:35;;;;;;;9.17;5.57;;;16.60;99.90;;;;;;5052941;28;20213;-62
2021/09/20 07:55:04;;;;;;;7.07;5.57;;;16.70;99.90;;;;;;5053016;28;20681;-61
2021/09/20 07:57:32;;;;;;;6.43;5.00;;;16.80;99.90;;;;;;5053096;28;20292;-62
2021/09/20 08:00:00;;;;;;;7.60;5.30;;;16.80;99.90;;;;;;5052943;28;20206;-61
2021/09/20 08:02:27;;;;;;;5.80;5.20;;;16.90;99.90;;;;;;5052932;28;20220;-61
2021/09/20 08:04:53;;;;;;;6.17;5.30;;;17.10;99.90;;;;;;5052750;28;20216;-62
2021/09/20 08:07:20;;;;;;;6.67;5.43;;;17.10;99.90;;;;;;5052629;28;20209;-62
2021/09/20 08:09:47;;;;;;;5.60;5.00;;;17.30;99.90;;;;;;5052458;28;20229;-61
2021/09/20 08:12:13;;;;;;;7.87;5.03;;;17.30;99.90;;;;;;5052945;28;20212;-61
2021/09/20 08:14:41;;;;;;;6.23;5.20;;;17.40;99.90;;;;;;5052847;28;20282;-61
2021/09/20 08:17:09;;;;;;;7.47;5.47;;;17.50;99.90;;;;;;5052508;28;20773;-62
2021/09/20 08:19:36;;;;;;;9.93;5.43;;;17.50;99.90;;;;;;5052361;28;20283;-62
2021/09/20 08:22:03;;;;;;;6.33;5.37;;;17.50;99.90;;;;;;5052697;28;20216;-62
2021/09/20 08:24:29;;;;;;;8.13;5.67;;;17.50;99.90;;;;;;5052612;28;20214;-62
2021/09/20 08:26:56;;;;;;;8.65;5.78;;;17.60;99.90;;;;;;5052184;28;20205;-61
2021/09/20 08:29:23;;;;;;;7.03;5.20;;;17.70;99.90;;;;;;5052187;28;20756;-61
2021/09/20 08:31:50;;;;;;;8.10;5.25;;;17.80;99.90;;;;;;5052486;28;20693;-62
2021/09/20 08:34:18;;;;;;;5.40;4.90;;;18.00;99.90;;;;;;5052149;28;20609;-62
2021/09/20 08:36:44;;;;;;;7.30;4.78;;;18.20;99.90;;;;;;5052437;28;20229;-61
2021/09/20 08:39:11;;;;;;;5.43;4.93;;;18.20;99.90;;;;;;5052154;28;20233;-62
2021/09/20 08:41:41;;;;;;;8.88;5.97;;;18.30;99.90;;;;;;5051872;28;20565;-62
2021/09/20 08:44:09;;;;;;;5.90;5.30;;;18.30;99.90;;;;;;5052125;28;20275;-62
2021/09/20 08:46:38;;;;;;;6.40;5.60;;;18.40;99.90;;;;;;5052204;28;20213;-62
2021/09/20 08:49:06;;;;;;;6.97;5.43;;;18.40;99.90;;;;;;5051980;28;20233;-61
2021/09/20 08:51:34;;;;;;;5.78;5.18;;;18.40;99.90;;;;;;5051799;28;20295;-62
2021/09/20 08:54:01;;;;;;;5.13;4.55;;;18.50;99.90;;;;;;5051770;28;20205;-62
2021/09/20 08:56:27;;;;;;;5.40;4.90;;;18.50;99.90;;;;;;5051883;28;20206;-62
2021/09/20 08:58:54;;;;;;;6.63;5.68;;;18.40;99.90;;;;;;5052405;28;20234;-62
2021/09/20 09:01:21;;;;;;;6.30;5.40;;;18.30;99.90;;;;;;5051827;28;20210;-61
2021/09/20 09:03:48;;;;;;;6.68;5.28;;;18.40;99.90;;;;;;5051792;28;20213;-61
2021/09/20 09:06:28;;;;;;;6.22;5.53;;;18.70;99.90;;;;;;5051989;28;20227;-61
2021/09/20 09:08:56;;;;;;;6.28;5.40;;;19.10;99.90;;;;;;5051999;28;20256;-61
2021/09/20 09:11:23;;;;;;;5.72;5.10;;;19.50;99.90;;;;;;5051795;28;20225;-62
2021/09/20 09:13:50;;;;;;;6.97;5.10;;;19.80;99.90;;;;;;5051476;28;20205;-61
2021/09/20 09:16:19;;;;;;;6.05;5.45;;;20.10;99.90;;;;;;5053165;28;20209;-59
2021/09/20 09:19:04;;;;;;;6.85;5.05;;;20.30;99.90;;;;;;5051526;28;20226;-61
2021/09/20 09:21:32;;;;;;;5.68;5.18;;;20.40;99.90;;;;;;5051645;28;20201;-60
2021/09/20 09:24:03;;;;;;;6.20;4.78;;;20.60;99.90;;;;;;5051389;28;20201;-61
2021/09/20 09:26:29;;;;;;;6.25;5.65;;;20.70;99.90;;;;;;5051315;28;20279;-63
2021/09/20 09:29:07;;;;;;;6.55;5.40;;;20.70;99.90;;;;;;5051191;28;20740;-60
2021/09/20 09:31:36;;;;;;;5.47;4.95;;;20.60;99.90;;;;;;5051454;28;20236;-61
2021/09/20 09:34:15;;;;;;;6.80;4.88;;;20.70;99.90;;;;;;5051158;28;20207;-61
2021/09/20 09:36:42;;;;;;;6.57;4.72;;;20.80;99.90;;;;;;5051083;28;20239;-61
2021/09/20 09:39:11;;;;;;;6.93;4.72;;;20.90;99.90;;;;;;5050107;28;20782;-61
2021/09/20 09:41:39;;;;;;;6.07;5.05;;;20.80;99.90;;;;;;5051297;28;20198;-62
2021/09/20 09:44:09;;;;;;;5.75;5.15;;;20.90;99.90;;;;;;5051170;28;20217;-61
2021/09/20 09:46:38;;;;;;;5.63;5.07;;;21.00;99.90;;;;;;5051176;28;20205;-62
2021/09/20 09:49:12;;;;;;;6.90;4.50;;;21.10;99.90;;;;;;5050914;28;20240;-62
2021/09/20 09:51:57;;;;;;;5.25;4.75;;;21.20;99.90;;;;;;5051237;28;20279;-62
2021/09/20 09:54:30;;;;;;;5.63;4.97;;;21.40;99.90;;;;;;5050829;28;20259;-61
2021/09/20 09:57:12;;;;;;;4.93;4.43;;;21.50;99.90;;;;;;5051115;28;20216;-62
2021/09/20 09:59:40;;;;;;;6.63;5.25;;;21.30;99.90;;;;;;5050871;28;20232;-61
2021/09/20 10:02:18;;;;;;;6.30;5.50;;;21.00;99.90;;;;;;5051488;28;20217;-62
2021/09/20 10:04:57;;;;;;;8.68;5.43;;;20.80;99.90;;;;;;5050643;28;20663;-61
2021/09/20 10:07:26;;;;;;;6.78;5.22;;;20.70;99.90;;;;;;5050984;28;20564;-61
2021/09/20 10:09:55;;;;;;;5.78;4.70;;;20.50;99.90;;;;;;5050899;28;20210;-60
2021/09/20 10:12:24;;;;;;;5.43;4.93;;;20.30;99.90;;;;;;5050709;28;20205;-62
2021/09/20 10:14:52;;;;;;;7.18;6.47;;;20.10;99.90;;;;;;5050523;28;20205;-61
2021/09/20 10:17:19;;;;;;;6.50;4.82;;;20.10;99.90;;;;;;5050615;28;20638;-61
2021/09/20 10:19:47;;;;;;;6.15;5.55;;;20.10;99.90;;;;;;5050542;28;20229;-61
2021/09/20 10:22:16;;;;;;;8.65;5.10;;;20.00;99.90;;;;;;5050665;28;20233;-61
2021/09/20 10:24:43;;;;;;;6.05;5.45;;;19.90;99.90;;;;;;5050338;28;20332;-62
2021/09/20 10:27:13;;;;;;;6.15;5.63;;;20.00;99.90;;;;;;5050711;28;20209;-61
2021/09/20 10:29:44;;;;;;;6.20;5.60;;;20.00;99.90;;;;;;5050206;28;20717;-61
2021/09/20 10:32:12;;;;;;;8.82;6.20;;;20.00;99.90;;;;;;5050285;28;20717;-62
2021/09/20 10:34:38;;;;;;;5.72;5.22;;;20.00;99.90;;;;;;5050433;28;20220;-62
2021/09/20 10:37:09;;;;;;;6.65;6.05;;;20.10;99.90;;;;;;5050411;28;20216;-61
2021/09/20 10:39:51;;;;;;;6.72;5.88;;;20.20;99.90;;;;;;5050704;28;20236;-62
2021/09/20 10:43:00;;;;;;;6.05;5.45;;;20.30;99.90;;;;;;5050811;28;20205;-62
2021/09/20 10:45:54;;;;;;;6.28;5.65;;;20.30;99.90;;;;;;5047932;28;20493;-61
2021/09/20 10:48:28;;;;;;;6.72;6.00;;;20.40;99.90;;;;;;5050454;28;20229;-61
2021/09/20 10:50:57;;;;;;;6.43;5.82;;;20.60;99.90;;;;;;5052973;28;20225;-61
2021/09/20 10:53:32;;;;;;;6.25;5.65;;;20.90;99.90;;;;;;5054248;28;20209;-61
2021/09/20 10:56:32;;;;;;;8.93;6.20;;;21.20;99.90;;;;;;5053710;28;20669;-62
2021/09/20 10:59:20;;;;;;;7.40;6.70;;;21.20;99.90;;;;;;5031146;28;20293;-61
2021/09/20 11:02:08;;;;;;;8.02;7.22;;;21.40;99.90;;;;;;5054100;28;20289;-61
2021/09/20 11:04:37;;;;;;;7.22;6.55;;;21.40;99.90;;;;;;5053777;28;20210;-61
2021/09/20 11:07:16;;;;;;;11.35;7.57;;;21.60;99.90;;;;;;5054269;28;20209;-60
2021/09/20 11:10:08;;;;;;;9.10;8.30;;;21.30;99.90;;;;;;5053962;28;20625;-62
2021/09/20 11:12:54;;;;;;;9.07;8.18;;;21.00;99.90;;;;;;5054551;28;20297;-61
2021/09/20 11:15:23;;;;;;;8.02;7.22;;;20.70;99.90;;;;;;5055978;28;20591;-61
2021/09/20 11:17:51;;;;;;;8.88;7.97;;;20.90;99.90;;;;;;5055074;28;20221;-61
2021/09/20 11:20:28;;;;;;;8.98;8.07;;;21.20;99.90;;;;;;5055008;28;20703;-62
2021/09/20 11:23:28;;;;;;;8.15;7.43;;;21.40;99.90;;;;;;5053968;28;20216;-62
2021/09/20 11:26:14;;;;;;;7.82;7.13;;;21.50;99.90;;;;;;5012468;28;20671;-63
2021/09/20 11:28:44;;;;;;;8.05;7.25;;;21.30;99.90;;;;;;5050585;28;20228;-62
2021/09/20 11:31:12;;;;;;;9.25;7.82;;;21.20;99.90;;;;;;5053663;28;20716;-62
2021/09/20 11:33:41;;;;;;;10.23;8.68;;;21.20;99.90;;;;;;5053581;28;20217;-62
2021/09/20 11:36:34;;;;;;;9.70;7.95;;;21.00;99.90;;;;;;5053578;28;20214;-60
2021/09/20 11:39:14;;;;;;;9.27;8.30;;;20.80;99.90;;;;;;5051415;28;20257;-58
2021/09/20 11:41:42;;;;;;;9.68;7.47;;;20.70;99.90;;;;;;5053156;28;20206;-58
2021/09/20 11:44:09;;;;;;;8.77;7.20;;;20.50;99.90;;;;;;5053252;28;20212;-58
2021/09/20 11:46:38;;;;;;;9.65;7.90;;;20.50;99.90;;;;;;5053484;28;20728;-58
2021/09/20 11:49:07;;;;;;;7.97;7.18;;;20.40;99.90;;;;;;5053187;28;20232;-59
2021/09/20 11:51:34;;;;;;;9.35;7.72;;;20.30;99.90;;;;;;5053455;28;20259;-58
2021/09/20 11:54:01;;;;;;;8.40;7.60;;;20.30;99.90;;;;;;5052924;28;20206;-60
2021/09/20 11:56:28;;;;;;;8.90;8.00;;;20.30;99.90;;;;;;5053609;28;20206;-60
2021/09/20 11:58:57;;;;;;;8.98;7.65;;;20.30;99.90;;;;;;5053248;28;20222;-59
2021/09/20 12:01:25;;;;;;;10.57;7.20;;;20.30;99.90;;;;;;5052821;28;20212;-59
2021/09/20 12:03:54;;;;;;;12.07;7.10;;;20.40;99.90;;;;;;5053277;28;20634;-59
2021/09/20 12:06:29;;;;;;;7.68;6.88;;;20.40;99.90;;;;;;5053269;28;20210;-59
2021/09/20 12:08:59;;;;;;;10.55;6.82;;;20.40;99.90;;;;;;5052434;28;20264;-57
2021/09/20 12:11:26;;;;;;;7.75;7.03;;;20.50;99.90;;;;;;5052680;28;20255;-59
2021/09/20 12:13:53;;;;;;;7.28;6.57;;;20.60;99.90;;;;;;5052659;28;20213;-58
2021/09/20 12:16:20;;;;;;;6.97;6.28;;;20.60;99.90;;;;;;5052975;28;20212;-56
2021/09/20 12:18:47;;;;;;;8.02;6.55;;;20.60;99.90;;;;;;5052402;28;20237;-56
2021/09/20 12:21:16;;;;;;;7.97;6.97;;;20.70;99.90;;;;;;5052117;28;20209;-61
2021/09/20 12:23:45;;;;;;;8.95;6.47;;;20.80;99.90;;;;;;5052430;28;20232;-57
2021/09/20 12:26:14;;;;;;;8.52;7.00;;;20.90;99.90;;;;;;5053030;28;20296;-57
2021/09/20 12:28:43;;;;;;;8.88;6.68;;;20.80;99.90;;;;;;5048916;28;20225;-60
2021/09/20 12:31:12;;;;;;;8.63;6.82;;;20.90;99.90;;;;;;5032311;28;20625;-59
2021/09/20 12:33:52;;;;;;;8.00;6.65;;;20.90;99.90;;;;;;5031554;28;20292;-63
2021/09/20 12:36:26;;;;;;;7.95;6.72;;;21.10;99.90;;;;;;5032336;28;20214;-62
2021/09/20 12:39:05;;;;;;;7.38;6.65;;;21.10;99.90;;;;;;5032339;28;20237;-62
2021/09/20 12:41:34;;;;;;;7.53;6.82;;;21.30;99.90;;;;;;5032521;28;20662;-61
2021/09/20 12:44:01;;;;;;;6.78;6.15;;;21.50;99.90;;;;;;5032021;28;20602;-61
2021/09/20 12:46:30;;;;;;;7.10;6.35;;;21.70;99.90;;;;;;5032148;28;20268;-60
2021/09/20 12:48:57;;;;;;;7.72;6.93;;;21.80;99.90;;;;;;5031390;28;20241;-60
2021/09/20 12:51:33;;;;;;;6.90;6.30;;;21.60;99.90;;;;;;5032035;28;20226;-60
2021/09/20 12:54:00;;;;;;;7.75;7.05;;;21.50;99.90;;;;;;5032053;28;20210;-62